createdAt,value
2019-01-09T05:01:49.793Z,3.20
2019-01-09T05:04:18.933Z,3.33
2019-01-09T05:06:47.813Z,3.77
2019-01-09T05:09:17.102Z,3.03
2019-01-09T05:11:46.277Z,3.30
2019-01-09T05:14:15.328Z,2.90
2019-01-09T05:16:44.114Z,3.30
2019-01-09T05:19:12.916Z,3.20
2019-01-09T05:21:41.960Z,2.87
2019-01-09T05:24:11.080Z,3.53
2019-01-09T05:26:40.229Z,3.20
2019-01-09T05:29:09.668Z,3.30
2019-01-09T05:31:38.952Z,3.00
2019-01-09T05:34:08.261Z,3.57
2019-01-09T05:36:37.517Z,3.27
2019-01-09T05:39:07.656Z,3.37
2019-01-09T05:41:37.023Z,3.20
2019-01-09T05:44:06.321Z,3.30
2019-01-09T05:46:35.622Z,3.50
2019-01-09T05:49:04.469Z,3.80
2019-01-09T05:51:33.527Z,3.53
2019-01-09T05:54:02.537Z,3.00
2019-01-09T05:56:31.344Z,3.10
2019-01-09T05:59:00.360Z,2.70
2019-01-09T06:01:29.382Z,3.17
2019-01-09T06:03:58.861Z,2.80
2019-01-09T06:06:27.724Z,3.03
2019-01-09T06:08:56.516Z,2.90
2019-01-09T06:11:25.537Z,2.70
2019-01-09T06:13:54.941Z,3.10
2019-01-09T06:16:23.985Z,3.20
2019-01-09T06:18:52.902Z,3.00
2019-01-09T06:21:21.924Z,3.20
2019-01-09T06:23:51.437Z,3.10
2019-01-09T06:26:20.228Z,2.83
2019-01-09T06:28:49.505Z,3.07
2019-01-09T06:31:19.201Z,2.70
2019-01-09T06:33:48.044Z,4.23
2019-01-09T06:36:17.110Z,2.57
2019-01-09T06:38:46.188Z,3.40
2019-01-09T06:41:15.200Z,2.50
2019-01-09T06:43:44.257Z,2.70
2019-01-09T06:46:13.616Z,2.70
2019-01-09T06:48:42.412Z,3.00
2019-01-09T06:51:11.196Z,2.60
2019-01-09T06:53:40.001Z,2.37
2019-01-09T06:56:09.137Z,2.60
2019-01-09T06:58:37.916Z,2.63
2019-01-09T07:01:06.718Z,3.10
2019-01-09T07:03:35.597Z,2.73
2019-01-09T07:06:04.539Z,4.07
2019-01-09T07:08:33.785Z,3.40
2019-01-09T07:11:02.662Z,3.40
2019-01-09T07:13:31.436Z,2.80
2019-01-09T07:16:00.513Z,3.30
2019-01-09T07:18:29.620Z,3.57
2019-01-09T07:20:58.770Z,2.90
2019-01-09T07:23:27.561Z,3.37
2019-01-09T07:25:56.602Z,2.80
2019-01-09T07:28:25.499Z,3.10
2019-01-09T07:30:54.351Z,4.67
2019-01-09T07:33:23.220Z,3.33
2019-01-09T07:35:52.548Z,3.83
2019-01-09T07:38:21.591Z,2.93
2019-01-09T07:40:50.449Z,2.93
2019-01-09T07:43:19.543Z,3.10
2019-01-09T07:45:48.668Z,3.03
2019-01-09T07:48:17.784Z,3.10
2019-01-09T07:50:46.905Z,3.37
2019-01-09T07:53:15.776Z,2.73
2019-01-09T07:55:44.873Z,3.53
2019-01-09T07:58:14.132Z,3.43
2019-01-09T08:00:43.176Z,3.30
2019-01-09T08:03:12.714Z,3.00
2019-01-09T08:05:41.804Z,3.40
2019-01-09T08:08:11.105Z,3.50
2019-01-09T08:10:40.028Z,3.43
2019-01-09T08:13:09.489Z,3.47
2019-01-09T08:15:38.785Z,4.93
2019-01-09T08:18:07.966Z,3.00
2019-01-09T08:20:36.916Z,3.10
2019-01-09T08:23:06.013Z,3.40
2019-01-09T08:25:34.794Z,2.60
2019-01-09T08:28:03.604Z,3.40
2019-01-09T08:30:33.313Z,3.27
2019-01-09T08:33:02.088Z,3.20
2019-01-09T08:35:30.877Z,4.37
2019-01-09T08:38:02.958Z,3.20
2019-01-09T08:40:30.699Z,3.10
2019-01-09T08:43:00.233Z,3.37
2019-01-09T08:45:29.780Z,4.07
2019-01-09T08:47:58.565Z,3.00
2019-01-09T08:50:27.436Z,3.40
2019-01-09T08:52:56.548Z,3.90
2019-01-09T08:55:25.644Z,3.17
2019-01-09T08:57:55.162Z,3.60
2019-01-09T09:00:24.310Z,3.43
2019-01-09T09:02:53.680Z,3.07
2019-01-09T09:05:22.694Z,2.97
2019-01-09T09:08:01.565Z,5.13
2019-01-09T09:10:30.767Z,3.33
2019-01-09T09:12:59.844Z,3.67
2019-01-09T09:15:29.140Z,3.10
2019-01-09T09:17:58.125Z,3.07
2019-01-09T09:20:27.499Z,3.30
2019-01-09T09:22:56.369Z,3.30
2019-01-09T09:25:25.477Z,3.20
2019-01-09T09:27:54.831Z,3.73
2019-01-09T09:30:23.933Z,2.90
2019-01-09T09:32:52.973Z,4.00
2019-01-09T09:35:21.776Z,3.57
2019-01-09T09:37:50.809Z,3.10
2019-01-09T09:40:21.465Z,3.20
2019-01-09T09:42:50.315Z,3.20
2019-01-09T09:45:19.516Z,2.90
2019-01-09T09:47:48.554Z,2.90
2019-01-09T09:50:18.005Z,3.30
2019-01-09T09:52:47.120Z,3.00
2019-01-09T09:55:16.120Z,3.80
2019-01-09T09:57:45.428Z,3.40
2019-01-09T10:00:18.242Z,2.90
2019-01-09T10:02:47.035Z,2.80
2019-01-09T10:05:16.440Z,3.13
2019-01-09T10:07:45.241Z,2.97
2019-01-09T10:10:14.576Z,2.77
2019-01-09T10:12:43.522Z,2.80
2019-01-09T10:15:12.992Z,3.17
2019-01-09T10:17:42.190Z,3.13
2019-01-09T10:20:13.415Z,2.80
2019-01-09T10:22:42.628Z,2.70
2019-01-09T10:25:11.560Z,2.63
2019-01-09T10:27:40.365Z,2.50
2019-01-09T10:30:13.422Z,2.70
2019-01-09T10:32:42.681Z,2.40
2019-01-09T10:35:11.942Z,2.43
2019-01-09T10:37:40.884Z,2.70
2019-01-09T10:40:11.688Z,2.53
2019-01-09T10:42:40.784Z,2.33
2019-01-09T10:45:10.557Z,2.63
2019-01-09T10:47:39.417Z,2.50
2019-01-09T10:50:09.181Z,2.43
2019-01-09T10:52:37.956Z,2.87
2019-01-09T10:55:07.190Z,2.50
2019-01-09T10:57:35.976Z,2.60
2019-01-09T11:00:07.244Z,2.50
2019-01-09T11:02:36.038Z,2.50
2019-01-09T11:05:05.664Z,2.40
2019-01-09T11:07:34.468Z,2.80
2019-01-09T11:10:03.422Z,2.60
2019-01-09T11:12:32.486Z,2.47
2019-01-09T11:15:01.584Z,2.30
2019-01-09T11:17:30.389Z,2.70
2019-01-09T11:19:59.260Z,2.60
2019-01-09T11:22:28.553Z,2.70
2019-01-09T11:24:57.330Z,2.67
2019-01-09T11:27:26.381Z,3.17
2019-01-09T11:29:55.431Z,2.80
2019-01-09T11:32:24.553Z,3.40
2019-01-09T11:34:53.425Z,3.13
2019-01-09T11:37:22.199Z,3.20
2019-01-09T11:39:51.255Z,2.60
2019-01-09T11:42:20.028Z,3.00
2019-01-09T11:44:49.076Z,2.63
2019-01-09T11:47:18.100Z,2.40
2019-01-09T11:49:47.444Z,2.93
2019-01-09T11:52:16.484Z,2.63
2019-01-09T11:54:45.523Z,2.60
2019-01-09T11:57:14.532Z,2.47
2019-01-09T11:59:43.564Z,2.37
2019-01-09T12:02:12.685Z,2.60
2019-01-09T12:04:42.215Z,2.53
2019-01-09T12:07:11.624Z,2.67
2019-01-09T12:09:40.789Z,2.67
2019-01-09T12:12:09.926Z,2.83
2019-01-09T12:14:39.246Z,2.70
2019-01-09T12:17:08.039Z,2.50
2019-01-09T12:19:37.190Z,2.60
2019-01-09T12:22:06.185Z,2.60
2019-01-09T12:24:34.960Z,2.93
2019-01-09T12:27:03.925Z,2.67
2019-01-09T12:29:32.965Z,2.80
2019-01-09T12:32:01.765Z,3.07
2019-01-09T12:34:31.113Z,2.97
2019-01-09T12:37:00.217Z,3.60
2019-01-09T12:39:29.496Z,3.17
2019-01-09T12:41:58.622Z,3.53
2019-01-09T12:44:27.641Z,3.10
2019-01-09T12:46:57.015Z,3.00
2019-01-09T12:49:26.373Z,3.03
2019-01-09T12:51:55.460Z,3.30
2019-01-09T12:54:24.526Z,3.47
2019-01-09T12:56:53.356Z,3.10
2019-01-09T12:59:22.387Z,3.43
2019-01-09T13:01:51.458Z,3.70
2019-01-09T13:04:20.522Z,3.30
2019-01-09T13:06:49.443Z,3.23
2019-01-09T13:09:22.353Z,3.10
2019-01-09T13:11:49.264Z,3.40
2019-01-09T13:14:18.060Z,3.23
2019-01-09T13:16:48.000Z,3.30
2019-01-09T13:19:16.936Z,3.70
2019-01-09T13:21:45.720Z,4.50
2019-01-09T13:24:14.757Z,4.27
2019-01-09T13:26:44.040Z,4.67
2019-01-09T13:29:12.815Z,4.30
2019-01-09T13:31:41.854Z,4.20
2019-01-09T13:34:10.956Z,4.47
2019-01-09T13:36:40.267Z,4.50
2019-01-09T13:39:10.091Z,5.53
2019-01-09T13:41:39.209Z,4.80
2019-01-09T13:44:08.161Z,5.50
2019-01-09T13:46:37.028Z,5.27
2019-01-09T13:49:06.165Z,5.10
2019-01-09T13:51:35.488Z,5.00
2019-01-09T13:54:04.801Z,5.80
2019-01-09T13:56:34.085Z,6.13
2019-01-09T13:59:02.952Z,7.75
2019-01-09T14:01:31.733Z,6.47
2019-01-09T14:04:01.293Z,5.77
2019-01-09T14:06:30.401Z,6.60
2019-01-09T14:08:59.532Z,6.93
2019-01-09T14:11:28.877Z,6.13
2019-01-09T14:13:57.927Z,6.13
2019-01-09T14:16:27.278Z,7.07
2019-01-09T14:18:56.324Z,6.13
2019-01-09T14:21:25.197Z,5.70
2019-01-09T14:23:54.287Z,6.13
2019-01-09T14:26:23.487Z,6.30
2019-01-09T14:28:52.854Z,5.77
2019-01-09T14:31:22.221Z,6.40
2019-01-09T14:33:51.252Z,6.30
2019-01-09T14:36:20.129Z,7.00
2019-01-09T14:38:49.139Z,5.43
2019-01-09T14:41:19.884Z,6.10
2019-01-09T14:43:49.440Z,6.50
2019-01-09T14:46:18.505Z,5.40
2019-01-09T14:48:47.280Z,5.80
2019-01-09T14:51:16.296Z,6.37
2019-01-09T14:53:45.102Z,5.80
2019-01-09T14:56:14.461Z,6.13
2019-01-09T14:58:43.392Z,5.43
2019-01-09T15:01:12.673Z,5.77
2019-01-09T15:03:41.998Z,6.20
2019-01-09T15:06:10.924Z,6.03
2019-01-09T15:08:40.016Z,6.50
2019-01-09T15:11:09.380Z,6.20
2019-01-09T15:13:38.433Z,6.00
2019-01-09T15:16:07.690Z,6.70
2019-01-09T15:18:36.791Z,5.80
2019-01-09T15:21:05.820Z,6.40
2019-01-09T15:23:34.932Z,5.40
2019-01-09T15:26:04.074Z,5.43
2019-01-09T15:28:33.278Z,5.90
2019-01-09T15:31:02.325Z,6.50
2019-01-09T15:33:31.129Z,5.93
2019-01-09T15:36:00.009Z,7.10
2019-01-09T15:38:29.360Z,6.83
2019-01-09T15:40:58.517Z,6.53
2019-01-09T15:43:27.297Z,6.43
2019-01-09T15:45:56.361Z,7.33
2019-01-09T15:48:25.239Z,6.67
2019-01-09T15:50:54.350Z,6.90
2019-01-09T15:53:23.224Z,6.73
2019-01-09T15:55:52.292Z,6.97
2019-01-09T15:58:21.712Z,6.40
2019-01-09T16:00:53.833Z,7.47
2019-01-09T16:03:23.051Z,7.33
2019-01-09T16:05:52.152Z,6.90
2019-01-09T16:08:21.409Z,7.10
2019-01-09T16:10:50.601Z,6.90
2019-01-09T16:13:19.856Z,7.50
2019-01-09T16:15:48.932Z,7.00
2019-01-09T16:18:17.786Z,7.23
2019-01-09T16:20:46.609Z,6.97
2019-01-09T16:23:15.481Z,8.07
2019-01-09T16:25:44.892Z,6.80
2019-01-09T16:28:13.820Z,7.10
2019-01-09T16:31:15.772Z,7.33
2019-01-09T16:33:45.071Z,6.67
2019-01-09T16:36:15.305Z,7.63
2019-01-09T16:38:44.424Z,7.73
2019-01-09T16:41:13.554Z,7.63
2019-01-09T16:43:42.933Z,7.33
2019-01-09T16:46:11.930Z,6.70
2019-01-09T16:48:41.075Z,6.50
2019-01-09T16:51:09.972Z,7.07
2019-01-09T16:53:38.856Z,7.63
2019-01-09T16:56:08.571Z,7.47
2019-01-09T16:58:37.513Z,6.70
2019-01-09T17:01:07.152Z,7.07
2019-01-09T17:03:36.333Z,6.30
2019-01-09T17:06:06.421Z,6.87
2019-01-09T17:08:35.815Z,7.50
2019-01-09T17:11:05.062Z,7.90
2019-01-09T17:13:34.428Z,6.83
2019-01-09T17:16:03.308Z,7.13
2019-01-09T17:18:32.497Z,6.53
2019-01-09T17:21:01.529Z,5.97
2019-01-09T17:23:30.645Z,6.67
2019-01-09T17:26:00.026Z,6.20
2019-01-09T17:28:28.948Z,6.97
2019-01-09T17:30:58.313Z,7.17
2019-01-09T17:33:27.365Z,6.27
2019-01-09T17:35:56.375Z,7.10
2019-01-09T17:38:26.037Z,6.67
2019-01-09T17:40:54.965Z,6.57
2019-01-09T17:43:24.717Z,6.30
2019-01-09T17:45:53.882Z,6.53
2019-01-09T17:48:22.777Z,6.50
2019-01-09T17:50:51.636Z,6.60
2019-01-09T17:53:20.738Z,6.87
2019-01-09T17:55:49.688Z,6.73
2019-01-09T17:58:18.926Z,6.70
2019-01-09T18:00:48.369Z,6.60
2019-01-09T18:03:17.670Z,6.77
2019-01-09T18:05:47.037Z,6.83
2019-01-09T18:08:16.353Z,6.30
2019-01-09T18:10:50.354Z,6.43
2019-01-09T18:13:16.661Z,6.27
2019-01-09T18:15:45.845Z,6.30
2019-01-09T18:18:14.989Z,6.90
2019-01-09T18:20:44.108Z,7.00
2019-01-09T18:23:13.807Z,7.73
2019-01-09T18:25:43.197Z,6.60
2019-01-09T18:28:12.353Z,6.70
2019-01-09T18:31:03.323Z,6.93
2019-01-09T18:33:30.256Z,7.50
2019-01-09T18:36:24.664Z,7.03
2019-01-09T18:39:30.581Z,7.03
2019-01-09T18:42:50.600Z,6.77
2019-01-09T18:46:01.175Z,8.50
2019-01-09T18:48:58.817Z,6.97
2019-01-09T18:52:04.775Z,7.30
2019-01-09T18:54:34.015Z,7.27
2019-01-09T18:57:03.265Z,9.80
2019-01-09T18:59:32.189Z,8.43
2019-01-09T19:02:01.421Z,7.80
2019-01-09T19:04:30.664Z,7.60
2019-01-09T19:07:00.056Z,8.27
2019-01-09T19:09:29.202Z,7.57
2019-01-09T19:11:58.462Z,7.27
2019-01-09T19:14:27.984Z,7.40
2019-01-09T19:16:56.909Z,7.50
2019-01-09T19:19:26.114Z,8.20
2019-01-09T19:21:55.001Z,7.57
2019-01-09T19:24:23.924Z,7.57
2019-01-09T19:26:53.065Z,7.20
2019-01-09T19:29:22.033Z,8.03
2019-01-09T19:31:51.675Z,7.50
2019-01-09T19:34:20.764Z,7.67
2019-01-09T19:36:49.700Z,8.47
2019-01-09T19:39:19.221Z,9.17
2019-01-09T19:41:48.365Z,7.50
2019-01-09T19:44:17.319Z,7.87
2019-01-09T19:46:46.176Z,7.93
2019-01-09T19:49:15.673Z,8.53
2019-01-09T19:51:44.674Z,8.37
2019-01-09T19:54:13.834Z,8.77
2019-01-09T19:56:42.770Z,9.47
2019-01-09T19:59:12.239Z,9.00
2019-01-09T20:01:41.496Z,9.00
2019-01-09T20:04:10.673Z,9.93
2019-01-09T20:06:39.938Z,10.60
2019-01-09T20:09:09.695Z,9.67
2019-01-09T20:11:38.562Z,9.23
2019-01-09T20:14:07.782Z,10.27
2019-01-09T20:16:37.377Z,10.37
2019-01-09T20:19:06.704Z,10.47
2019-01-09T20:21:36.195Z,10.03
2019-01-09T20:24:05.280Z,10.10
2019-01-09T20:26:34.515Z,9.50
2019-01-09T20:29:03.500Z,10.20
2019-01-09T20:31:33.387Z,10.63
2019-01-09T20:34:02.581Z,9.27
2019-01-09T20:36:31.588Z,9.90
2019-01-09T20:39:00.737Z,10.33
2019-01-09T20:41:35.209Z,10.13
2019-01-09T20:44:00.691Z,10.17
2019-01-09T20:46:29.826Z,10.20
2019-01-09T20:48:59.313Z,11.27
2019-01-09T20:51:28.710Z,10.77
2019-01-09T20:53:57.595Z,9.33
2019-01-09T20:56:26.725Z,9.83
2019-01-09T20:58:55.615Z,10.83
2019-01-09T21:01:24.953Z,10.90
2019-01-09T21:03:54.350Z,9.70
2019-01-09T21:06:23.637Z,9.80
2019-01-09T21:08:59.555Z,10.27
2019-01-09T21:11:23.859Z,9.43
2019-01-09T21:13:53.405Z,9.37
2019-01-09T21:16:22.599Z,9.53
2019-01-09T21:18:51.461Z,9.90
2019-01-09T21:21:20.261Z,9.80
2019-01-09T21:23:49.236Z,10.13
2019-01-09T21:26:18.097Z,9.93
2019-01-09T21:28:47.422Z,10.20
2019-01-09T21:31:16.524Z,10.13
2019-01-09T21:33:45.340Z,9.77
2019-01-09T21:36:14.132Z,9.27
2019-01-09T21:38:43.534Z,10.33
2019-01-09T21:41:12.394Z,9.13
2019-01-09T21:43:41.554Z,9.33
2019-01-09T21:46:10.712Z,10.30
2019-01-09T21:48:39.654Z,10.13
2019-01-09T21:51:08.862Z,10.83
2019-01-09T21:53:38.094Z,11.17
2019-01-09T21:56:07.122Z,10.40
2019-01-09T21:58:36.393Z,12.43
